Terminal Aerodrome Forecast
Issued by NWS

Home | Current Version | Previous Version | Text Only | Print | Product List | Glossary On
Versions: 1 2 3 4 5 6 7 8 9 10 11 12 13 14 15 16 17 18 19 20 21
000
FTUS43 KEAX 301720
TAFMKC
TAF
KMKC 301720Z 3018/3118 08005KT P6SM SCT010 BKN015
      TEMPO 3018/3019 SCT015
     FM301900 13007KT P6SM SCT035
     FM311100 17005KT 3SM BR FEW035
     FM311500 16008KT P6SM FEW030=

USA.gov is the U.S. government's official web portal to all federal, state and local government web resources and services.